Data for 09/17/2013

Time Sea-Level Adjusted Pressure Absolute Pressure Temperature Relative Humidity Dew Point Precipitation   
(mb) (inHg) (mb) (inHg) (C) (F) (%) (C) (F) (mm) (in)
00:05 1016 30 845 24.95 12.4 54.3 65 6 42.8 0 0
00:10 1016 30 845 24.95 13.5 56.3 59 5.7 42.3 0 0
00:15 1016 30 845 24.95 14.3 57.7 57 6 42.7 0 0
00:20 1016 30 845 24.95 14.7 58.5 58 6.7 44 0 0
00:25 1016 30 845 24.95 13.5 56.4 64 6.8 44.3 0 0
00:30 1016 30 845 24.95 13.1 55.5 63 6.2 43.2 0 0
00:35 1016 30 845 24.95 13.2 55.8 63 6.3 43.4 0 0
00:40 1016 30 845 24.95 13.3 55.9 63 6.4 43.6 0 0
00:45 1016 30 845 24.95 13.5 56.2 66 7.2 45 0 0
00:50 1016 30 845 24.95 13.1 55.5 68 7.5 45.4 0 0
00:55 1016 30 845 24.95 12.8 55.1 71 7.7 45.9 0 0
01:00 1016 30 845 24.95 12.2 53.9 73 7.5 45.4 0 0
01:05 1016 30 845 24.95 12.4 54.3 70 7.1 44.8 0 0
01:10 1016 30 845 24.95 12.4 54.4 76 8.3 47 0 0
01:15 1016 30 845 24.95 11.8 53.2 77 8 46.4 0 0
01:20 1016 30 846 24.98 11.8 53.2 78 8.1 46.6 0 0
01:25 1016 30 846 24.98 11.9 53.4 78 8.3 46.9 0 0
01:30 1016 30 846 24.98 11.8 53.2 77 8 46.4 0 0
01:35 1016 30 845 24.95 12 53.6 77 8.2 46.7 0 0
01:40 1016 30 845 24.95 11.6 52.9 80 8.2 46.8 0 0
01:45 1016 30 845 24.95 11.2 52.2 81 8.1 46.6 0 0
01:50 1016 30 845 24.95 11.2 52.1 79 7.7 45.9 0 0
01:55 1016 30 845 24.95 11.4 52.4 79 7.8 46.1 0 0
02:00 1016 30 845 24.95 11.6 53 78 7.9 46.3 0 0
02:05 1016 30 845 24.95 11.5 52.7 79 8 46.4 0 0
02:10 1016 30 845 24.95 11.3 52.4 78 7.7 45.9 0 0
02:15 1016 30 845 24.95 11.5 52.7 78 7.8 46 0 0
02:20 1016 30 845 24.95 11.4 52.5 78 7.6 45.7 0 0
02:25 1016 30 845 24.95 11.5 52.7 76 7.4 45.2 0 0
02:30 1016 30 845 24.95 11.7 53 76 7.6 45.6 0 0
02:35 1016 30 845 24.95 11.1 52.1 80 7.8 46 0 0
02:40 1016 30 845 24.95 10.8 51.5 80 7.6 45.6 0 0
02:45 1016 30 845 24.95 10.8 51.4 81 7.6 45.7 0 0
02:50 1016 30 845 24.95 10.9 51.7 78 7.2 44.9 0 0
02:55 1016 30 845 24.95 11.5 52.6 74 7.1 44.7 0 0
03:00 1016 30 845 24.95 11.7 53.1 76 7.7 45.9 0 0
03:05 1016 30 845 24.95 11.4 52.5 79 7.9 46.2 0 0
03:10 1016 30 845 24.95 10.8 51.5 81 7.8 46 0 0
03:15 1016 30 845 24.95 10.6 51.1 81 7.4 45.4 0 0
03:20 1016 30 845 24.95 11.2 52.2 78 7.6 45.7 0 0
03:25 1016 30 845 24.95 11.3 52.3 78 7.7 45.8 0 0
03:30 1016 30 845 24.95 11.2 52.2 80 7.9 46.2 0 0
03:35 1016 30 845 24.95 11.1 51.9 81 8 46.4 0 0
03:40 1016 30 845 24.95 11 51.8 82 8 46.4 0 0
03:45 1016 30 845 24.95 10.8 51.4 82 7.9 46.3 0 0
03:50 1016 30 845 24.95 10.7 51.3 82 7.9 46.1 0 0
03:55 1016 30 845 24.95 10.7 51.2 83 7.9 46.3 0 0
04:00 1016 30 845 24.95 10.6 51 83 7.8 46 0 0
04:05 1016 30 845 24.95 10.9 51.7 80 7.7 45.9 0 0
04:10 1016 30 845 24.95 10.9 51.5 81 7.7 45.9 0 0
04:15 1016 30 845 24.95 10.7 51.3 81 7.6 45.7 0 0
04:20 1016 30 845 24.95 10.4 50.8 86 8.3 46.9 0 0
04:25 1016 30 845 24.95 10.5 50.8 85 8.1 46.5 0 0
04:30 1016 30 845 24.95 9.8 49.7 87 7.7 45.9 0 0
04:35 1016 30 845 24.95 10 49.9 84 7.4 45.3 0 0
04:40 1016 30 845 24.95 9.9 49.7 87 7.9 46.2 0 0
04:45 1016 30 845 24.95 9.6 49.3 88 7.7 45.8 0 0
04:50 1016 30 845 24.95 9.8 49.7 87 7.8 46.1 0 0
04:55 1016 30 845 24.95 9.7 49.5 87 7.7 45.9 0 0
05:00 1016 30 845 24.95 9.6 49.3 88 7.7 45.8 0 0
05:05 1016 30 845 24.95 10.1 50.2 79 6.8 44.2 0 0
05:10 1016 30 845 24.95 11 51.8 78 7.4 45.3 0 0
05:15 1016 30 845 24.95 10.5 50.9 82 7.6 45.7 0 0
05:20 1016 30 845 24.95 9.7 49.5 85 7.3 45.1 0 0
05:25 1016 30 845 24.95 9.2 48.5 85 6.8 44.2 0 0
05:30 1016 30 845 24.95 9.2 48.5 85 6.8 44.2 0 0
05:35 1016 30 845 24.95 8.7 47.7 87 6.7 44.1 0 0
05:40 1016 30 845 24.95 9.2 48.6 85 6.8 44.2 0 0
05:45 1016 30 845 24.95 8.9 47.9 87 6.8 44.2 0 0
05:50 1015 29.97 845 24.95 8.3 46.9 89 6.6 43.9 0 0
05:55 1016 30 845 24.95 8 46.3 90 6.4 43.5 0 0
06:00 1016 30 845 24.95 7.7 45.9 90 6.3 43.3 0 0
06:05 1016 30 845 24.95 7.8 46 91 6.3 43.4 0 0
06:10 1015 29.97 845 24.95 8.3 47 88 6.4 43.6 0 0
06:15 1015 29.97 845 24.95 8.3 47 89 6.6 44 0 0
06:20 1015 29.97 844 24.92 8.5 47.3 87 6.5 43.6 0 0
06:25 1015 29.97 844 24.92 8.6 47.6 87 6.6 43.9 0 0
06:30 1015 29.97 844 24.92 7.9 46.2 89 6.2 43.1 0 0
06:35 1015 29.97 844 24.92 7.1 44.8 92 5.9 42.7 0 0
06:40 1015 29.97 844 24.92 7.5 45.5 92 6.3 43.3 0 0
06:45 1015 29.97 844 24.92 7.7 45.9 92 6.5 43.7 0 0
06:50 1015 29.97 844 24.92 8 46.5 92 6.8 44.2 0 0
06:55 1015 29.97 844 24.92 8.4 47.1 91 7 44.6 0 0
07:00 1015 29.97 844 24.92 8.6 47.4 91 7.1 44.9 0 0
07:05 1015 29.97 844 24.92 9.2 48.5 88 7.3 45.1 0 0
07:10 1015 29.97 844 24.92 9.3 48.7 89 7.7 45.8 0 0
07:15 1015 29.97 844 24.92 9.5 49.1 88 7.6 45.7 0 0
07:20 1015 29.97 844 24.92 9.7 49.4 88 7.7 45.9 0 0
07:25 1015 29.97 844 24.92 9.6 49.4 88 7.7 45.9 0 0
07:30 1015 29.97 844 24.92 9.5 49.1 90 8 46.5 0 0
07:35 1015 29.97 844 24.92 9.7 49.5 90 8.1 46.5 0 0
07:40 1015 29.97 844 24.92 9.9 49.7 90 8.3 46.9 0 0
07:45 1015 29.97 845 24.95 10 49.9 90 8.5 47.3 0 0
07:50 1015 29.97 845 24.95 10.1 50.2 91 8.7 47.6 0 0
07:55 1015 29.97 844 24.92 10.3 50.5 91 8.8 47.9 0 0
08:00 1015 29.97 844 24.92 10.5 50.8 89 8.7 47.7 0 0
08:05 1016 30 845 24.95 10.7 51.2 90 9.1 48.4 0 0
08:10 1016 30 845 24.95 10.6 51 88 8.7 47.7 .4 0.016
08:15 1016 30 846 24.98 10.7 51.2 89 9 48.1 3.4 0.134
08:20 1016 30 846 24.98 10.5 50.8 91 9.1 48.3 .2 0.008
08:25 1017 30.03 846 24.98 10.4 50.8 91 9.1 48.4 .2 0.008
08:30 1017 30.03 846 24.98 10.6 51.2 90 9.1 48.4 0 0
08:35 1017 30.03 846 24.98 10.9 51.6 90 9.3 48.8 0 0
08:40 1017 30.03 846 24.98 11.1 51.9 90 9.5 49.2 0 0
08:45 1017 30.03 846 24.98 11.2 52.2 90 9.6 49.3 .2 0.008
08:50 1017 30.03 846 24.98 11.6 52.8 87 9.6 49.2 0 0
08:55 1017 30.03 846 24.98 11.4 52.6 90 9.9 49.8 .2 0.008
09:00 1017 30.03 846 24.98 11.1 52 90 9.5 49.1 0 0
09:05 1017 30.03 847 25.01 11.1 51.9 92 9.8 49.6 0 0
09:10 1017 30.03 847 25.01 10.9 51.6 92 9.7 49.5 0 0
09:15 1017 30.03 847 25.01 10.9 51.6 93 9.8 49.6 .2 0.008
09:20 1017 30.03 847 25.01 10.9 51.7 93 9.9 49.7 0 0
09:25 1017 30.03 847 25.01 11 51.9 94 10.1 50.1 0 0
09:30 1018 30.06 847 25.01 11.1 52.1 94 10.3 50.5 0 0
09:35 1018 30.06 847 25.01 11.1 52.1 95 10.3 50.6 .4 0.016
09:40 1018 30.06 847 25.01 11.1 52 95 10.3 50.6 .2 0.008
09:45 1018 30.06 847 25.01 11.1 51.9 96 10.4 50.7 .2 0.008
09:50 1017 30.03 847 25.01 11.1 51.9 95 10.4 50.7 0 0
09:55 1017 30.03 847 25.01 11.3 52.3 95 10.5 50.9 0 0
10:00 1017 30.03 847 25.01 11.6 52.8 93 10.5 50.8 0 0
10:05 1017 30.03 847 25.01 11.6 52.9 93 10.5 50.9 0 0
10:10 1017 30.03 846 24.98 11.7 53 91 10.2 50.4 0 0
10:15 1017 30.03 846 24.98 11.8 53.3 90 10.3 50.6 .2 0.008
10:20 1017 30.03 846 24.98 12 53.7 92 10.7 51.3 0 0
10:25 1017 30.03 846 24.98 12.3 54.1 92 11.1 52 0 0
10:30 1017 30.03 846 24.98 12.5 54.5 91 11.1 52.1 0 0
10:35 1017 30.03 846 24.98 12.7 54.8 92 11.5 52.6 0 0
10:40 1017 30.03 846 24.98 12.8 55 91 11.3 52.3 0 0
10:45 1017 30.03 846 24.98 13 55.4 88 11 51.8 0 0
10:50 1017 30.03 846 24.98 13.2 55.8 87 11.1 52 0 0
10:55 1016 30 846 24.98 13.2 55.8 89 11.4 52.5 0 0
11:00 1016 30 845 24.95 13 55.4 90 11.4 52.4 0 0
11:05 1016 30 845 24.95 12.9 55.3 88 11.1 51.9 0 0
11:10 1016 30 845 24.95 13 55.3 86 10.6 51.1 0 0
11:15 1016 30 845 24.95 12.9 55.3 85 10.6 51 0 0
11:20 1016 30 845 24.95 12.9 55.2 82 10 50 0 0
11:25 1016 30 845 24.95 13 55.4 82 10.1 50.2 0 0
11:30 1016 30 845 24.95 13.1 55.6 83 10.2 50.4 0 0
11:35 1016 30 845 24.95 13.2 55.7 80 9.8 49.6 0 0
11:40 1016 30 845 24.95 13.3 56 78 9.6 49.2 0 0
11:45 1016 30 845 24.95 13.4 56.2 75 9.1 48.4 .2 0.008
11:50 1016 30 845 24.95 13.4 56.2 77 9.6 49.2 .2 0.008
11:55 1016 30 845 24.95 13.2 55.8 77 9.3 48.8 .2 0.008
12:00 1016 30 845 24.95 13.3 56 74 8.9 48.1 0 0
12:05 1016 30 845 24.95 13.3 55.9 82 10.3 50.5 0 0
12:10 1016 30 845 24.95 12.8 55.1 84 10.3 50.5 0 0
12:15 1016 30 845 24.95 12.7 54.8 83 9.9 49.9 .2 0.008
12:20 1016 30 845 24.95 12.7 54.9 87 10.7 51.3 0 0
12:25 1016 30 845 24.95 12.7 54.9 87 10.7 51.2 0 0
12:30 1016 30 845 24.95 12.8 55 89 11.1 52 0 0
12:35 1015 29.97 844 24.92 13.2 55.7 91 11.7 53.1 0 0
12:40 1015 29.97 844 24.92 13.6 56.4 87 11.4 52.5 0 0
12:45 1015 29.97 844 24.92 13.9 57.1 87 11.9 53.4 0 0
12:50 1015 29.97 844 24.92 14.2 57.6 82 11.3 52.3 0 0
12:55 1014 29.94 843 24.89 14.2 57.6 79 10.7 51.3 0 0
13:00 1014 29.94 843 24.89 14.4 58 82 11.3 52.4 0 0
13:05 1014 29.94 843 24.89 14.8 58.7 72 9.9 49.8 0 0
13:10 1014 29.94 843 24.89 15.5 59.9 70 10.1 50.2 0 0
13:15 1014 29.94 843 24.89 16.2 61.2 72 11.2 52.2 0 0
13:20 1014 29.94 843 24.89 16.7 62 65 10.2 50.4 0 0
13:25 1014 29.94 843 24.89 16.6 61.9 64 9.9 49.9 0 0
13:30 1014 29.94 843 24.89 16.5 61.7 69 10.8 51.5 0 0
13:35 1014 29.94 843 24.89 16.1 61.1 67 10.1 50.2 0 0
13:40 1014 29.94 843 24.89 15.9 60.6 65 9.5 49.1 0 0
13:45 1014 29.94 843 24.89 16.2 61.1 66 9.9 49.9 0 0
13:50 1014 29.94 843 24.89 16.4 61.5 64 9.6 49.3 0 0
13:55 1014 29.94 843 24.89 16.8 62.2 61 9.3 48.8 0 0
14:00 1013 29.91 842 24.86 17.2 63 63 10.3 50.5 0 0
14:05 1013 29.91 842 24.86 17.8 64 57 9.4 48.8 0 0
14:10 1013 29.91 842 24.86 18.1 64.6 55 9.1 48.4 0 0
14:15 1013 29.91 842 24.86 18.5 65.2 65 11.8 53.2 0 0
14:20 1013 29.91 842 24.86 17.1 62.8 71 11.9 53.4 0 0
14:25 1013 29.91 842 24.86 16.4 61.5 70 10.9 51.6 0 0
14:30 1012 29.88 842 24.86 17.4 63.4 69 11.7 53.1 0 0
14:35 1012 29.88 842 24.86 17.5 63.5 66 11.2 52.2 0 0
14:40 1012 29.88 841 24.83 17.4 63.4 67 11.4 52.5 0 0
14:45 1012 29.88 841 24.83 17.5 63.4 62 10.2 50.4 0 0
14:50 1012 29.88 841 24.83 17.6 63.7 62 10.4 50.8 0 0
14:55 1012 29.88 841 24.83 18 64.4 61 10.6 51 0 0
15:00 1012 29.88 841 24.83 18 64.4 60 10.1 50.2 0 0
15:05 1012 29.88 841 24.83 17.8 64.1 63 10.7 51.3 0 0
15:10 1012 29.88 841 24.83 18 64.5 58 9.7 49.5 0 0
15:15 1012 29.88 841 24.83 18.1 64.5 63 11.1 52 0 0
15:20 1011 29.85 841 24.83 17.5 63.5 62 10.2 50.3 0 0
15:25 1012 29.88 841 24.83 17.2 63 65 10.8 51.4 0 0
15:30 1012 29.88 841 24.83 17.3 63.2 65 10.8 51.5 0 0
15:35 1012 29.88 841 24.83 17.3 63.2 63 10.2 50.4 0 0
15:40 1012 29.88 841 24.83 17.2 62.9 61 9.7 49.5 0 0
15:45 1012 29.88 841 24.83 17.1 62.7 66 10.8 51.5 0 0
15:50 1012 29.88 841 24.83 17.1 62.8 65 10.7 51.2 0 0
15:55 1012 29.88 841 24.83 17.1 62.8 66 10.9 51.6 0 0
16:00 1012 29.88 841 24.83 16.9 62.4 68 11 51.7 0 0
16:05 1012 29.88 841 24.83 16.5 61.6 69 10.8 51.4 0 0
16:10 1012 29.88 841 24.83 16.2 61.2 70 10.9 51.5 0 0
16:15 1012 29.88 841 24.83 16 60.7 71 10.7 51.3 0 0
16:20 1012 29.88 841 24.83 15.4 59.8 80 12 53.6 0 0
16:25 1013 29.91 842 24.86 14 57.3 84 11.3 52.4 0 0
16:30 1013 29.91 842 24.86 13.3 56 81 10.2 50.3 0 0
16:35 1013 29.91 842 24.86 13.2 55.8 76 9.2 48.6 0 0
16:40 1013 29.91 842 24.86 13 55.3 85 10.5 51 0 0
16:45 1013 29.91 842 24.86 12.1 53.8 89 10.3 50.5 0 0
16:50 1013 29.91 842 24.86 11.7 53 90 10.1 50.1 .4 0.016
16:55 1013 29.91 842 24.86 11.5 52.7 91 10.1 50.2 .2 0.008
17:00 1013 29.91 842 24.86 11.4 52.5 92 10.2 50.4 0 0
17:05 1013 29.91 842 24.86 11.4 52.6 93 10.3 50.5 0 0
17:10 1013 29.91 842 24.86 11.5 52.7 93 10.4 50.7 0 0
17:15 1012 29.88 842 24.86 11.5 52.7 94 10.5 50.9 0 0
17:20 1012 29.88 841 24.83 11.4 52.5 94 10.4 50.7 0 0
17:25 1012 29.88 841 24.83 11.3 52.4 93 10.3 50.5 0 0
17:30 1012 29.88 841 24.83 11.3 52.4 93 10.2 50.3 0 0
17:35 1012 29.88 841 24.83 11.3 52.3 92 10 50 0 0
17:40 1011 29.85 840 24.81 11.3 52.3 93 10.1 50.2 0 0
17:45 1012 29.88 841 24.83 11.2 52.1 93 10.1 50.2 0 0
17:50 1012 29.88 841 24.83 11.1 52 93 10.1 50.2 0 0
17:55 1012 29.88 841 24.83 11.1 52 94 10.1 50.2 0 0
18:00 1012 29.88 841 24.83 11.1 52 93 10 50 0 0
18:05 1012 29.88 842 24.86 11.1 51.9 92 9.9 49.8 0 0
18:10 1013 29.91 842 24.86 11.1 52 92 9.8 49.6 0 0
18:15 1013 29.91 842 24.86 11.1 52.1 93 10 50 0 0
18:20 1013 29.91 842 24.86 11.1 52 94 10.1 50.2 0 0
18:25 1013 29.91 842 24.86 11.1 52 93 10.1 50.1 0 0
18:30 1013 29.91 842 24.86 11.2 52.1 92 10 50 0 0
18:35 1013 29.91 842 24.86 11.3 52.3 92 10.1 50.2 0 0
18:40 1013 29.91 842 24.86 11.3 52.4 93 10.2 50.4 0 0
18:45 1013 29.91 843 24.89 11.4 52.6 93 10.3 50.6 0 0
18:50 1014 29.94 843 24.89 11.5 52.7 93 10.4 50.6 0 0
18:55 1014 29.94 843 24.89 11.5 52.8 91 10.1 50.3 0 0
19:00 1013 29.91 843 24.89 11.6 52.8 89 9.8 49.6 0 0
19:05 1013 29.91 843 24.89 11.5 52.7 90 9.9 49.8 .2 0.008
19:10 1013 29.91 842 24.86 11.3 52.4 91 9.9 49.8 0 0
19:15 1013 29.91 843 24.89 11.2 52.2 91 9.8 49.7 0 0
19:20 1014 29.94 843 24.89 11.2 52.1 92 9.9 49.7 0 0
19:25 1014 29.94 843 24.89 11.1 52 88 9.3 48.7 0 0
19:30 1013 29.91 843 24.89 11.1 52 87 9 48.3 0 0
19:35 1013 29.91 843 24.89 11.1 52.1 87 9.1 48.3 0 0
19:40 1013 29.91 843 24.89 11.1 52 85 8.7 47.6 .4 0.016
19:45 1013 29.91 842 24.86 11 51.9 86 8.8 47.9 .2 0.008
19:50 1013 29.91 842 24.86 10.9 51.6 87 8.8 47.8 .2 0.008
19:55 1013 29.91 842 24.86 10.8 51.4 89 9 48.2 .2 0.008
20:00 1013 29.91 842 24.86 10.6 51.2 89 8.9 48 .2 0.008
20:05 1013 29.91 842 24.86 10.7 51.3 88 8.7 47.7 0 0
20:10 1012 29.88 841 24.83 10.6 51.2 90 9.1 48.4 .2 0.008
20:15 1012 29.88 841 24.83 10.5 50.9 90 8.9 48 0 0
20:20 1012 29.88 841 24.83 10.5 50.9 89 8.7 47.7 0 0
20:25 1012 29.88 841 24.83 10.6 51.1 88 8.7 47.7 0 0
20:30 1012 29.88 841 24.83 10.7 51.2 87 8.5 47.3 0 0
20:35 1012 29.88 841 24.83 10.9 51.6 84 8.3 47 0 0
20:40 1012 29.88 841 24.83 11 51.9 83 8.3 46.9 0 0
20:45 1012 29.88 841 24.83 11.2 52.1 82 8.3 46.9 0 0
20:50 1012 29.88 841 24.83 11.3 52.3 82 8.3 46.9 0 0
20:55 1012 29.88 841 24.83 11.3 52.3 84 8.7 47.6 0 0
21:00 1012 29.88 841 24.83 11.1 52 83 8.3 47 0 0
21:05 1012 29.88 841 24.83 11.2 52.2 83 8.4 47.1 0 0
21:10 1012 29.88 841 24.83 11.2 52.2 82 8.3 46.9 0 0
21:15 1011 29.85 841 24.83 11.3 52.4 80 8 46.5 .2 0.008
21:20 1012 29.88 841 24.83 11.4 52.5 81 8.3 47 0 0
21:25 1012 29.88 841 24.83 11.3 52.3 84 8.7 47.7 0 0
21:30 1012 29.88 841 24.83 11.1 52 84 8.4 47.2 0 0
21:35 1012 29.88 841 24.83 11.3 52.3 83 8.5 47.3 0 0
21:40 1012 29.88 841 24.83 11.4 52.5 80 8.2 46.7 0 0
21:45 1012 29.88 841 24.83 11.9 53.4 79 8.4 47.1 0 0
21:50 1012 29.88 841 24.83 12 53.6 79 8.5 47.2 0 0
21:55 1012 29.88 841 24.83 11.8 53.2 81 8.6 47.6 0 0
22:00 1012 29.88 841 24.83 11.6 52.8 83 8.8 47.8 0 0
22:05 1012 29.88 841 24.83 11.4 52.6 85 9 48.1 0 0
22:10 1012 29.88 841 24.83 11.3 52.4 85 8.9 48 0 0
22:15 1012 29.88 841 24.83 11.3 52.4 84 8.8 47.9 0 0
22:20 1012 29.88 841 24.83 11.4 52.4 84 8.7 47.6 0 0
22:25 1011 29.85 841 24.83 11.4 52.6 83 8.7 47.7 0 0
22:30 1011 29.85 841 24.83 11.4 52.6 83 8.7 47.6 0 0
22:35 1011 29.85 840 24.81 11.4 52.5 84 8.7 47.7 0 0
22:40 1011 29.85 840 24.81 11.3 52.4 83 8.6 47.4 0 0
22:45 1011 29.85 840 24.81 11.3 52.4 83 8.5 47.3 0 0
22:50 1011 29.85 840 24.81 11.3 52.4 81 8.3 46.9 0 0
22:55 1012 29.88 841 24.83 11.4 52.6 80 8.2 46.7 0 0
23:00 1012 29.88 841 24.83 11.4 52.6 80 8.1 46.7 0 0
23:05 1012 29.88 841 24.83 11.5 52.6 79 7.9 46.2 0 0
23:10 1012 29.88 842 24.86 11.4 52.4 85 8.9 48 0 0
23:15 1013 29.91 842 24.86 10.2 50.4 92 9 48.1 0 0
23:20 1012 29.88 842 24.86 9.7 49.5 93 8.6 47.5 0 0
23:25 1012 29.88 842 24.86 9.5 49 94 8.6 47.4 0 0
23:30 1012 29.88 842 24.86 9.2 48.6 95 8.4 47.2 0 0
23:35 1012 29.88 842 24.86 9.1 48.3 95 8.3 46.9 0 0
23:40 1012 29.88 842 24.86 8.9 48.1 94 8 46.5 0 0
23:45 1012 29.88 842 24.86 8.3 47 95 7.7 45.8 0 0
23:50 1012 29.88 841 24.83 8.2 46.7 96 7.5 45.5 0 0
23:55 1012 29.88 841 24.83 7.9 46.2 96 7.4 45.3 0 0
24:00 1012 29.88 842 24.86 7.7 45.9 96 7.1 44.8 0 0